Time;durP1;ratioP1;P1;durP2;ratioP2;P2;SDS_P1;SDS_P2;PMS_P1;PMS_P2;Temp;Humidity;BMP_temperature;BMP_pressure;BME280_temperature;BME280_humidity;BME280_pressure;Samples;Min_cycle;Max_cycle;Signal;HPM_P1;HPM_P2
2021/12/07 00:01:39;;;;;;;27.35;16.38;;;2.90;78.10;;;1.88;65.18;94341.50;5036500;28;20196;-83
2021/12/07 00:04:07;;;;;;;26.20;16.90;;;2.90;78.10;;;1.87;65.08;94339.91;5029950;28;20211;-83
2021/12/07 00:06:37;;;;;;;27.58;17.10;;;2.90;78.20;;;1.88;65.04;94352.69;5038378;28;20231;-83
2021/12/07 00:09:09;;;;;;;27.35;16.60;;;2.90;78.10;;;1.88;65.19;94357.84;5056109;28;20246;-83
2021/12/07 00:11:36;;;;;;;28.23;17.98;;;2.90;78.10;;;1.89;65.00;94358.66;5055319;28;20179;-83
2021/12/07 00:14:13;;;;;;;27.25;17.23;;;2.90;78.10;;;1.87;65.06;94352.84;5072548;28;20677;-83
2021/12/07 00:16:44;;;;;;;26.30;16.42;;;2.90;78.10;;;1.83;64.93;94354.91;5069671;28;20252;-82
2021/12/07 00:19:12;;;;;;;29.90;17.50;;;2.90;78.20;;;1.84;65.02;94355.72;5069783;28;20224;-83
2021/12/07 00:21:42;;;;;;;26.23;17.00;;;2.90;78.10;;;1.85;65.03;94357.34;5106374;28;20195;-83
2021/12/07 00:24:11;;;;;;;26.23;16.73;;;2.90;78.10;;;1.85;65.10;94352.97;5072201;28;20597;-83
2021/12/07 00:26:41;;;;;;;27.50;16.30;;;2.90;79.00;;;1.82;65.11;94348.13;5072262;28;20703;-83
2021/12/07 00:29:10;;;;;;;24.25;16.02;;;2.90;78.20;;;1.87;64.78;94351.06;5055616;28;20227;-83
2021/12/07 00:31:48;;;;;;;26.08;15.98;;;2.90;78.20;;;1.86;64.89;94331.31;5072563;28;20571;-83
2021/12/07 00:35:15;;;;;;;24.52;15.88;;;2.90;78.20;;;1.87;64.96;94335.53;5069745;28;20705;-83
2021/12/07 00:37:08;;;;;;;26.23;16.08;;;2.90;78.20;;;1.86;65.01;94330.53;5033229;28;20200;-82
2021/12/07 00:39:37;;;;;;;25.02;15.90;;;2.90;78.10;;;1.84;65.03;94338.41;5039624;28;20593;-83
2021/12/07 00:42:04;;;;;;;23.77;15.95;;;2.90;78.10;;;1.81;65.10;94328.38;5035647;28;20302;-83
2021/12/07 00:44:32;;;;;;;26.00;16.67;;;2.90;78.10;;;1.84;64.96;94324.69;5054587;28;20237;-83
2021/12/07 00:46:59;;;;;;;26.52;16.05;;;2.90;78.10;;;1.85;65.26;94326.31;5038816;28;20244;-83
2021/12/07 00:49:27;;;;;;;26.08;15.90;;;2.90;78.10;;;1.78;64.65;94312.38;5038586;28;20223;-83
2021/12/07 00:51:54;;;;;;;23.02;15.48;;;2.90;78.10;;;1.80;65.05;94323.38;5035006;28;20239;-83
2021/12/07 00:54:21;;;;;;;23.95;15.50;;;2.90;78.20;;;1.79;65.09;94319.97;5034789;28;20227;-82
2021/12/07 00:56:49;;;;;;;26.92;17.15;;;2.80;78.10;;;1.79;65.07;94329.50;5049670;28;20223;-81
2021/12/07 00:59:16;;;;;;;28.70;18.15;;;3.00;78.20;;;1.76;65.26;94315.91;5018706;28;20298;-82
2021/12/07 01:01:44;;;;;;;26.95;17.67;;;2.90;78.20;;;1.74;65.46;94307.50;5063365;28;20207;-82
2021/12/07 01:04:11;;;;;;;30.65;18.60;;;2.80;78.00;;;1.76;65.06;94318.50;5062752;28;20214;-82
2021/12/07 01:09:24;;;;;;;27.73;17.38;;;2.80;78.10;;;1.72;64.93;94312.03;5055220;28;20563;-81
2021/12/07 01:25:55;;;;;;;27.38;16.25;;;2.80;78.10;;;1.71;65.25;94331.09;5056977;28;20246;-82
2021/12/07 01:28:37;;;;;;;26.42;16.35;;;2.80;78.20;;;1.72;65.21;94332.72;5055106;28;20195;-81
2021/12/07 01:36:48;;;;;;;28.00;16.92;;;2.80;78.20;;;1.72;64.97;94329.28;5076742;28;20234;-81
2021/12/07 01:47:32;;;;;;;26.27;16.70;;;2.80;78.20;;;1.70;64.96;94328.66;5054916;28;20227;-82
2021/12/07 02:01:09;;;;;;;25.40;15.55;;;2.70;78.20;;;1.71;64.86;94304.41;5059831;28;20187;-81
2021/12/07 02:03:41;;;;;;;23.38;14.68;;;2.80;78.30;;;1.68;65.01;94296.97;5058364;28;20204;-81
2021/12/07 02:06:12;;;;;;;23.85;14.93;;;2.70;79.00;;;1.71;64.99;94299.22;5054673;28;20214;-81
2021/12/07 02:08:41;;;;;;;25.77;16.00;;;2.70;79.10;;;1.73;65.23;94290.38;5052069;28;20572;-81
2021/12/07 02:11:09;;;;;;;26.58;15.95;;;2.70;78.30;;;1.74;65.23;94299.72;5041924;28;20529;-81
2021/12/07 02:16:10;;;;;;;25.38;15.82;;;2.70;78.30;;;1.72;65.25;94301.69;5090523;28;20205;-81
2021/12/07 02:18:38;;;;;;;26.30;16.50;;;2.70;78.30;;;1.71;65.16;94296.63;5041581;28;20588;-81
2021/12/07 02:21:24;;;;;;;25.90;16.05;;;2.80;78.30;;;1.72;64.99;94295.69;5056642;28;20738;-80
2021/12/07 02:24:00;;;;;;;26.52;16.00;;;2.70;78.30;;;1.72;64.99;94295.69;5072097;28;20771;-81
2021/12/07 02:26:28;;;;;;;25.13;15.57;;;2.80;78.20;;;1.69;64.82;94286.47;5040892;28;20276;-81
2021/12/07 02:28:57;;;;;;;24.92;16.05;;;2.80;78.30;;;1.73;65.24;94289.56;5037547;28;20220;-81
2021/12/07 02:31:25;;;;;;;26.23;15.57;;;2.80;78.20;;;1.73;65.24;94285.22;5039270;28;20672;-81
2021/12/07 02:33:54;;;;;;;25.27;16.02;;;2.80;78.20;;;1.72;64.89;94280.16;5057122;28;20608;-81
2021/12/07 02:36:23;;;;;;;25.20;16.05;;;2.80;78.30;;;1.72;65.08;94283.59;5041602;28;20270;-81
2021/12/07 02:38:52;;;;;;;25.48;16.10;;;2.70;78.20;;;1.72;65.04;94273.25;5057856;28;20215;-81
2021/12/07 02:41:20;;;;;;;24.10;15.63;;;2.80;78.20;;;1.71;65.28;94278.53;5074039;28;20195;-81
2021/12/07 02:43:48;;;;;;;26.30;16.45;;;2.70;78.10;;;1.65;64.89;94266.22;5039141;28;20616;-81
2021/12/07 02:46:17;;;;;;;26.58;15.73;;;2.70;78.10;;;1.70;64.96;94280.34;5040589;28;20219;-81
2021/12/07 02:48:47;;;;;;;27.75;17.13;;;2.70;78.10;;;1.70;65.29;94282.91;5056868;28;20222;-80
2021/12/07 02:51:15;;;;;;;26.23;16.35;;;2.70;78.10;;;1.65;65.26;94279.16;5038691;28;20291;-81
2021/12/07 02:53:43;;;;;;;25.85;16.45;;;2.70;78.10;;;1.68;64.82;94291.78;5038818;28;20195;-82
2021/12/07 02:56:10;;;;;;;25.55;15.30;;;2.70;78.10;;;1.68;64.93;94294.38;5038899;28;20596;-82
2021/12/07 02:58:42;;;;;;;27.45;16.05;;;2.70;78.10;;;1.62;64.88;94279.47;5039105;28;20730;-81
2021/12/07 03:01:24;;;;;;;26.88;16.15;;;2.70;78.20;;;1.67;64.70;94295.34;5055696;28;20482;-82
2021/12/07 03:04:16;;;;;;;26.73;16.13;;;2.70;79.00;;;1.65;65.26;94290.31;5051086;28;20695;-82
2021/12/07 03:28:18;;;;;;;26.48;15.98;;;2.60;78.20;;;1.53;65.15;94291.53;5057213;28;20222;-80
2021/12/07 03:30:46;;;;;;;27.38;16.38;;;2.60;78.20;;;1.52;65.21;94280.38;5072150;28;20336;-80
2021/12/07 03:33:14;;;;;;;26.10;16.17;;;2.60;78.20;;;1.57;65.05;94279.94;5056140;28;20203;-80
2021/12/07 03:35:44;;;;;;;26.55;16.35;;;2.60;78.20;;;1.57;64.89;94277.34;5072108;28;20234;-80
2021/12/07 03:38:11;;;;;;;26.65;16.15;;;2.60;78.20;;;1.56;65.13;94276.53;5056190;28;20280;-81
2021/12/07 03:40:40;;;;;;;27.75;15.70;;;2.60;78.20;;;1.56;64.80;94268.78;5072766;28;20215;-81
2021/12/07 03:43:09;;;;;;;26.17;15.68;;;2.60;78.20;;;1.57;65.12;94274.75;5055439;28;20203;-80
2021/12/07 03:45:36;;;;;;;24.83;15.70;;;2.60;78.20;;;1.57;65.21;94274.75;5039341;28;20249;-82
2021/12/07 03:48:07;;;;;;;27.75;15.55;;;2.60;78.30;;;1.58;65.16;94273.81;5072341;28;20238;-80
2021/12/07 03:50:35;;;;;;;27.38;15.80;;;2.60;78.30;;;1.58;65.12;94278.97;5079897;28;20252;-81
2021/12/07 03:53:04;;;;;;;28.60;16.52;;;2.60;78.30;;;1.57;65.00;94285.91;5068677;28;20203;-81
2021/12/07 03:55:32;;;;;;;28.25;16.75;;;2.60;78.20;;;1.50;65.01;94284.09;5035861;28;20207;-82
2021/12/07 03:58:00;;;;;;;30.60;18.08;;;2.60;78.10;;;1.55;64.91;94289.59;5041103;28;20265;-79
2021/12/07 04:00:29;;;;;;;30.52;18.42;;;2.60;78.10;;;1.51;64.73;94285.72;5051110;28;20215;-81
2021/12/07 04:03:02;;;;;;;29.60;17.83;;;2.60;78.10;;;1.47;64.92;94286.97;5037530;28;20653;-80
2021/12/07 04:05:29;;;;;;;25.90;16.83;;;2.60;78.10;;;1.46;65.19;94287.94;5063517;28;20712;-80
2021/12/07 04:07:57;;;;;;;26.48;17.02;;;2.60;78.10;;;1.47;65.04;94284.41;5052915;28;20582;-80
2021/12/07 04:10:25;;;;;;;27.13;17.90;;;2.60;78.90;;;1.47;64.69;94290.38;5057412;28;20224;-80
2021/12/07 04:12:53;;;;;;;28.20;17.23;;;2.50;78.00;;;1.41;65.09;94288.38;5069811;28;20282;-80
2021/12/07 04:15:21;;;;;;;27.55;17.77;;;2.50;78.00;;;1.42;64.51;94293.41;5044401;28;20705;-80
2021/12/07 04:17:49;;;;;;;28.02;16.98;;;2.50;78.00;;;1.37;65.13;94293.03;5053027;28;20210;-81
2021/12/07 04:20:19;;;;;;;26.27;16.23;;;2.50;77.90;;;1.35;64.83;94299.31;5059176;28;20216;-80
2021/12/07 04:22:47;;;;;;;30.45;18.00;;;2.50;77.90;;;1.31;65.08;94296.22;5059486;28;20307;-82
2021/12/07 04:25:17;;;;;;;27.67;17.38;;;2.50;77.90;;;1.31;64.87;94290.22;5069309;28;20214;-80
2021/12/07 04:27:46;;;;;;;26.38;16.25;;;2.40;77.90;;;1.28;64.96;94289.59;5076262;28;20220;-80
2021/12/07 04:30:19;;;;;;;26.35;16.02;;;2.40;78.00;;;1.26;65.00;94290.72;5079359;28;20203;-81
2021/12/07 04:32:47;;;;;;;29.52;17.00;;;2.40;78.00;;;1.26;64.97;94291.50;5035894;28;20256;-82
2021/12/07 04:35:15;;;;;;;25.35;15.90;;;2.40;78.10;;;1.21;65.08;94290.31;5036895;28;20219;-81
2021/12/07 04:37:43;;;;;;;25.73;16.10;;;2.30;78.00;;;1.23;65.05;94302.16;5070359;28;20207;-81
2021/12/07 04:40:16;;;;;;;28.95;17.52;;;2.30;78.10;;;1.23;65.02;94296.16;5070723;28;20249;-82
2021/12/07 04:42:44;;;;;;;28.05;17.25;;;2.30;78.10;;;1.22;65.10;94304.88;5054145;28;20203;-80
2021/12/07 04:45:26;;;;;;;31.90;18.77;;;2.30;78.10;;;1.17;65.17;94300.13;5036960;28;20308;-81
2021/12/07 04:58:10;;;;;;;32.95;20.27;;;2.30;78.20;;;1.17;65.38;94314.84;5054821;28;20207;-82
2021/12/07 05:00:37;;;;;;;32.13;20.73;;;2.30;78.30;;;1.17;65.47;94305.31;5038066;28;20313;-81
2021/12/07 05:03:10;;;;;;;32.65;20.05;;;2.30;78.30;;;1.15;65.09;94306.41;5055249;28;20664;-81
2021/12/07 05:05:44;;;;;;;34.53;20.45;;;2.30;78.40;;;1.23;65.27;94303.91;5054176;28;20261;-82
2021/12/07 05:08:14;;;;;;;31.48;19.65;;;2.30;78.30;;;1.19;65.19;94305.19;5056062;28;20453;-81
2021/12/07 05:16:43;;;;;;;31.40;20.02;;;2.30;78.10;;;1.10;64.57;94287.03;5057569;28;20203;-81
2021/12/07 05:38:40;;;;;;;39.88;24.35;;;1.70;77.10;;;0.08;64.92;94276.00;5061251;28;20680;-81
2021/12/07 05:41:09;;;;;;;31.23;19.58;;;1.60;77.10;;;0.01;64.81;94289.63;5074873;28;20219;-82
2021/12/07 05:43:37;;;;;;;31.23;17.75;;;1.50;77.10;;;-0.08;64.75;94297.25;5041692;28;20196;-81
2021/12/07 05:46:05;;;;;;;29.40;16.75;;;1.40;77.10;;;-0.15;65.04;94292.81;5058395;28;20246;-81
2021/12/07 05:48:32;;;;;;;30.67;17.23;;;1.40;77.10;;;-0.23;65.01;94294.31;5058137;28;20253;-80
2021/12/07 05:51:00;;;;;;;28.85;17.00;;;1.30;77.10;;;-0.36;65.14;94288.66;5058475;28;20199;-81
2021/12/07 05:53:28;;;;;;;26.95;16.60;;;1.20;77.10;;;-0.35;64.93;94303.19;5074337;28;20675;-81
2021/12/07 05:55:56;;;;;;;29.10;16.90;;;1.20;77.20;;;-0.41;65.32;94296.81;5058323;28;20203;-80
2021/12/07 05:58:23;;;;;;;25.73;16.15;;;1.10;77.20;;;-0.43;65.16;94303.06;5072831;28;20199;-81
2021/12/07 06:00:51;;;;;;;28.33;17.20;;;1.00;77.30;;;-0.52;64.90;94297.78;5069993;28;20216;-82
2021/12/07 06:03:18;;;;;;;22.95;14.73;;;1.00;77.30;;;-0.58;65.04;94289.81;5053207;28;20196;-81
2021/12/07 06:05:45;;;;;;;23.77;14.63;;;0.90;77.30;;;-0.65;65.16;94287.81;5055699;28;20219;-81
2021/12/07 06:08:12;;;;;;;26.80;15.25;;;0.90;77.40;;;-0.61;65.40;94295.22;5071485;28;20688;-81
2021/12/07 06:10:40;;;;;;;26.15;15.50;;;0.80;77.50;;;-0.64;65.45;94304.06;5056427;28;20211;-82
2021/12/07 06:13:07;;;;;;;25.33;14.75;;;0.80;77.50;;;-0.65;65.53;94300.69;5073281;28;20204;-81
2021/12/07 06:15:38;;;;;;;27.20;15.57;;;0.70;77.50;;;-0.66;65.59;94303.38;5037715;28;20287;-80
2021/12/07 06:18:06;;;;;;;25.33;14.93;;;0.70;77.60;;;-0.68;65.55;94302.72;5071052;28;20646;-81
2021/12/07 06:20:33;;;;;;;28.85;15.27;;;0.70;77.70;;;-0.71;65.48;94300.41;5074212;28;20222;-81
2021/12/07 06:23:13;;;;;;;27.35;16.05;;;0.70;77.70;;;-0.71;65.45;94311.53;5054911;28;20696;-81
2021/12/07 06:25:41;;;;;;;26.13;16.45;;;0.70;77.70;;;-0.80;65.71;94299.47;5074581;28;20204;-81
2021/12/07 06:28:09;;;;;;;25.40;15.55;;;0.60;77.60;;;-0.76;65.32;94311.09;5040469;28;20655;-81
2021/12/07 06:30:43;;;;;;;27.85;15.93;;;0.60;77.70;;;-0.82;65.47;94309.09;5057899;28;20215;-81
2021/12/07 06:33:12;;;;;;;28.27;15.43;;;0.60;77.70;;;-0.81;65.31;94305.56;5057613;28;20204;-81
2021/12/07 06:35:40;;;;;;;26.10;16.63;;;0.50;77.60;;;-0.88;65.09;94309.63;5056478;28;20211;-82
2021/12/07 06:38:08;;;;;;;28.65;16.35;;;0.50;77.50;;;-0.95;65.06;94311.13;5089639;28;20650;-82
2021/12/07 06:40:36;;;;;;;30.45;16.73;;;0.50;77.30;;;-0.99;64.85;94313.16;5075654;28;20307;-81
2021/12/07 06:43:03;;;;;;;28.05;15.93;;;0.50;77.20;;;-1.07;64.72;94302.75;5073995;28;20235;-80
2021/12/07 06:45:31;;;;;;;34.05;16.33;;;0.40;77.10;;;-1.15;64.80;94309.38;5090795;28;20318;-82
2021/12/07 06:47:59;;;;;;;25.20;15.32;;;0.30;77.00;;;-1.25;64.60;94308.53;5091134;28;20233;-81
2021/12/07 06:50:27;;;;;;;26.75;15.57;;;0.30;77.00;;;-1.30;64.91;94308.94;5053265;28;20216;-80
2021/12/07 06:52:54;;;;;;;25.02;15.60;;;0.20;77.00;;;-1.40;65.06;94308.13;5043709;28;20195;-81
2021/12/07 06:55:22;;;;;;;26.20;14.77;;;0.20;77.80;;;-1.44;64.54;94309.34;5056680;28;20249;-80
2021/12/07 06:57:49;;;;;;;22.70;14.57;;;0.10;76.90;;;-1.44;65.26;94327.34;5056385;28;20206;-80
2021/12/07 07:00:18;;;;;;;20.60;13.07;;;0.00;77.10;;;-1.44;65.27;94322.22;5073632;28;20239;-81
2021/12/07 07:02:46;;;;;;;21.92;12.18;;;0.00;77.40;;;-1.40;65.58;94327.88;5056236;28;20658;-78
2021/12/07 07:05:14;;;;;;;22.10;12.93;;;-0.10;77.60;;;-1.36;66.14;94316.41;5055108;28;20710;-79
2021/12/07 07:07:43;;;;;;;23.23;12.75;;;-0.10;77.60;;;-1.25;65.71;94321.41;5055478;28;20215;-78
2021/12/07 07:10:16;;;;;;;20.52;11.50;;;0.00;78.00;;;-1.17;66.06;94326.72;5073023;28;20234;-79
2021/12/07 07:12:46;;;;;;;18.98;12.68;;;0.00;78.30;;;-1.04;66.27;94329.03;5039352;28;20195;-80
2021/12/07 07:15:14;;;;;;;23.02;12.95;;;0.00;78.40;;;-0.92;65.88;94331.47;5056407;28;20258;-77
2021/12/07 07:17:42;;;;;;;20.92;13.52;;;0.10;78.60;;;-0.77;66.78;94327.50;5069637;28;20258;-78
2021/12/07 07:20:14;;;;;;;18.30;12.10;;;0.20;79.00;;;-0.57;66.54;94327.50;5087397;28;20242;-77
2021/12/07 07:22:41;;;;;;;23.52;13.10;;;0.30;79.40;;;-0.37;66.77;94329.06;5055956;28;20249;-77
2021/12/07 07:25:11;;;;;;;24.75;14.57;;;0.40;79.50;;;-0.15;66.90;94321.97;5055653;28;20273;-78
2021/12/07 07:27:39;;;;;;;23.85;15.05;;;0.50;79.90;;;0.06;66.92;94326.09;5072716;28;20265;-78
2021/12/07 07:30:10;;;;;;;24.73;14.13;;;0.70;80.10;;;0.26;66.56;94321.69;5052220;28;20290;-77
2021/12/07 07:32:37;;;;;;;24.08;13.48;;;0.80;80.20;;;0.46;66.80;94315.47;5053773;28;20188;-78
2021/12/07 07:35:07;;;;;;;24.50;15.00;;;1.00;80.30;;;0.65;66.47;94324.06;5071809;28;20724;-78
2021/12/07 07:37:34;;;;;;;24.58;13.77;;;1.10;80.30;;;0.79;66.20;94331.31;5068196;28;20234;-77
2021/12/07 07:40:04;;;;;;;26.40;14.77;;;1.30;80.30;;;0.93;66.05;94329.97;5035524;28;20314;-78
2021/12/07 07:42:33;;;;;;;21.95;13.90;;;1.50;80.30;;;1.05;65.84;94332.31;5036387;28;20188;-78
2021/12/07 07:45:12;;;;;;;23.35;14.13;;;1.60;80.20;;;1.13;66.04;94326.44;5052217;28;20224;-78
2021/12/07 07:47:41;;;;;;;26.27;15.65;;;1.70;80.00;;;1.23;65.81;94333.16;5052474;28;20344;-78
2021/12/07 07:50:12;;;;;;;26.63;16.17;;;1.80;80.00;;;1.28;66.03;94325.75;5071597;28;20242;-78
2021/12/07 07:52:40;;;;;;;25.00;15.07;;;2.00;80.00;;;1.39;66.28;94326.47;5039212;28;20203;-78
2021/12/07 07:55:09;;;;;;;22.48;14.35;;;2.10;80.00;;;1.48;65.89;94327.34;5072336;28;20707;-78
2021/12/07 07:57:37;;;;;;;22.42;13.93;;;2.20;80.70;;;1.57;65.80;94329.03;5071570;28;20196;-78
2021/12/07 08:00:09;;;;;;;21.23;13.30;;;2.20;79.90;;;1.63;65.75;94330.22;5069780;28;20223;-78
2021/12/07 08:02:39;;;;;;;24.42;14.85;;;2.30;79.80;;;1.63;65.46;94332.81;5069544;28;20260;-78
2021/12/07 08:05:07;;;;;;;23.20;13.75;;;2.40;79.50;;;1.66;65.29;94332.47;5054754;28;20644;-78
2021/12/07 08:07:35;;;;;;;21.60;13.88;;;2.50;79.30;;;1.66;65.15;94341.06;5035981;28;20199;-78
2021/12/07 08:10:05;;;;;;;22.80;13.85;;;2.50;79.20;;;1.68;65.42;94346.88;5051492;28;20215;-78
2021/12/07 08:12:34;;;;;;;20.95;12.27;;;2.50;79.20;;;1.71;65.68;94353.53;5052453;28;20211;-78
2021/12/07 08:15:04;;;;;;;21.25;12.73;;;2.60;79.30;;;1.80;66.00;94347.44;5069011;28;20219;-78
2021/12/07 08:17:32;;;;;;;23.77;13.00;;;2.60;79.50;;;1.93;66.37;94352.22;5053485;28;20313;-78
2021/12/07 08:19:59;;;;;;;20.00;13.05;;;2.60;79.80;;;2.08;66.32;94349.88;5036831;28;20230;-78
2021/12/07 08:22:30;;;;;;;22.52;14.40;;;2.70;79.90;;;2.22;66.34;94345.91;5069006;28;20207;-78
2021/12/07 08:24:57;;;;;;;21.25;13.25;;;2.80;80.00;;;2.36;66.42;94341.94;5069347;28;20211;-78
2021/12/07 08:27:25;;;;;;;20.70;13.43;;;2.90;80.10;;;2.48;65.95;94347.63;5052658;28;20673;-78
2021/12/07 08:29:56;;;;;;;21.00;12.90;;;3.00;80.10;;;2.58;66.16;94339.75;5054657;28;20633;-78
2021/12/07 08:32:23;;;;;;;21.40;14.15;;;3.10;80.10;;;2.67;66.18;94344.81;5070718;28;20201;-78
2021/12/07 08:34:50;;;;;;;19.15;12.95;;;3.20;80.80;;;2.75;65.83;94340.59;5054619;28;20633;-79
2021/12/07 08:37:17;;;;;;;19.00;12.63;;;3.30;79.90;;;2.81;65.62;94340.78;5038583;28;20311;-78
2021/12/07 08:39:45;;;;;;;18.60;12.77;;;3.40;79.80;;;2.87;65.58;94347.13;5037818;28;20219;-78
2021/12/07 08:42:12;;;;;;;18.55;12.55;;;3.50;79.90;;;2.93;65.78;94349.09;5053476;28;20203;-79
2021/12/07 08:44:39;;;;;;;19.38;12.18;;;3.60;79.80;;;3.00;65.80;94354.44;5053881;28;20238;-78
2021/12/07 08:47:07;;;;;;;20.73;12.57;;;3.60;79.70;;;3.03;65.28;94352.34;5069974;28;20187;-77
2021/12/07 08:49:34;;;;;;;23.00;12.30;;;3.70;79.70;;;3.08;65.35;94351.84;5052936;28;20258;-78
2021/12/07 08:52:02;;;;;;;21.00;12.70;;;3.80;79.60;;;3.11;65.60;94354.13;5070692;28;20308;-78
2021/12/07 09:02:16;;;;;;;17.25;12.15;;;4.00;79.30;;;3.23;65.31;94354.63;5054376;28;20278;-79
2021/12/07 09:04:46;;;;;;;16.67;11.57;;;4.00;79.20;;;3.28;65.50;94354.94;5083486;28;20206;-77
2021/12/07 09:07:14;;;;;;;18.08;11.93;;;4.00;79.20;;;3.31;65.52;94362.41;5094149;28;20192;-77
2021/12/07 09:09:44;;;;;;;16.95;11.00;;;4.10;79.30;;;3.40;65.62;94362.44;5049234;28;20325;-77
2021/12/07 09:12:14;;;;;;;18.15;11.20;;;4.10;79.20;;;3.47;65.59;94359.03;5036072;28;20210;-78
2021/12/07 09:14:43;;;;;;;18.10;11.10;;;4.20;80.10;;;3.55;65.66;94360.78;5053428;28;20662;-78
2021/12/07 09:17:13;;;;;;;17.02;11.38;;;4.30;79.50;;;3.62;65.34;94356.59;5051721;28;20241;-77
2021/12/07 09:19:41;;;;;;;15.18;10.32;;;4.30;79.20;;;3.68;65.45;94358.53;5068294;28;20669;-78
2021/12/07 09:22:08;;;;;;;15.40;10.10;;;4.40;79.20;;;3.77;65.11;94364.53;5069704;28;20223;-78
2021/12/07 09:24:52;;;;;;;16.63;10.70;;;4.50;79.20;;;3.83;64.87;94370.84;5068644;28;20218;-78
2021/12/07 09:27:19;;;;;;;17.30;10.15;;;4.50;79.10;;;3.91;64.94;94370.03;5052410;28;20282;-78
2021/12/07 09:29:47;;;;;;;14.32;9.65;;;4.60;79.10;;;3.96;64.88;94373.75;5053261;28;20748;-78
2021/12/07 09:32:14;;;;;;;15.93;10.48;;;4.60;79.00;;;4.00;64.74;94364.69;5052257;28;20191;-78
2021/12/07 09:34:42;;;;;;;16.67;10.23;;;4.70;78.90;;;4.04;64.78;94365.16;5052798;28;20306;-78
2021/12/07 09:37:09;;;;;;;17.67;10.52;;;4.70;78.80;;;4.08;64.66;94361.25;5057967;28;20695;-77
2021/12/07 09:39:37;;;;;;;18.13;10.98;;;4.80;78.80;;;4.15;64.79;94361.38;5066656;28;20219;-78
2021/12/07 09:42:04;;;;;;;16.90;10.90;;;4.80;78.80;;;4.22;64.58;94364.13;5053370;28;20226;-78
2021/12/07 09:44:31;;;;;;;17.00;10.65;;;4.90;78.80;;;4.24;64.89;94351.81;5037173;28;20288;-78
2021/12/07 09:46:58;;;;;;;17.30;11.80;;;4.90;78.80;;;4.33;64.63;94367.19;5037057;28;20226;-77
2021/12/07 09:49:26;;;;;;;16.08;10.77;;;5.00;78.70;;;4.36;64.40;94363.47;5053401;28;20235;-76
2021/12/07 09:51:53;;;;;;;17.50;11.52;;;5.00;78.50;;;4.35;64.14;94358.44;5067241;28;20199;-78
2021/12/07 09:54:21;;;;;;;18.65;12.20;;;5.10;78.40;;;4.30;63.87;94351.16;5030606;28;20600;-77
2021/12/07 09:56:48;;;;;;;15.45;10.60;;;5.10;78.20;;;4.31;63.99;94353.56;5037571;28;20645;-78
2021/12/07 09:59:15;;;;;;;16.88;11.00;;;5.10;78.10;;;4.30;64.00;94351.94;5053977;28;20211;-78
2021/12/07 10:01:43;;;;;;;15.43;10.30;;;5.10;78.00;;;4.32;64.13;94355.19;5083823;28;20294;-76
2021/12/07 10:04:11;;;;;;;14.23;9.55;;;5.10;78.00;;;4.36;64.13;94341.88;5053003;28;20281;-79
2021/12/07 10:06:39;;;;;;;16.33;10.23;;;5.10;78.00;;;4.33;64.48;94330.84;5079023;28;20200;-78
2021/12/07 10:09:07;;;;;;;15.80;10.38;;;5.10;78.70;;;4.39;64.13;94344.13;5066296;28;20568;-78
2021/12/07 10:11:35;;;;;;;14.48;9.90;;;5.10;78.00;;;4.41;64.08;94343.00;5052267;28;20191;-78
2021/12/07 10:14:02;;;;;;;13.00;8.75;;;5.20;78.10;;;4.44;64.12;94341.84;5070631;28;20227;-76
2021/12/07 10:16:29;;;;;;;15.15;9.73;;;5.20;78.00;;;4.48;64.03;94348.34;5040153;28;20203;-77
2021/12/07 10:18:57;;;;;;;13.93;9.68;;;5.20;78.00;;;4.47;64.11;94344.91;5069820;28;20697;-78
2021/12/07 10:21:30;;;;;;;15.10;9.95;;;5.20;77.90;;;4.50;64.19;94348.97;5068911;28;20200;-78
2021/12/07 10:24:07;;;;;;;14.77;8.88;;;5.30;77.90;;;4.53;63.83;94351.22;5053598;28;20606;-78
2021/12/07 10:26:47;;;;;;;13.32;8.95;;;5.30;77.70;;;4.57;64.06;94341.31;5057630;28;20241;-78
2021/12/07 10:29:19;;;;;;;13.70;9.40;;;5.30;77.70;;;4.63;64.04;94338.03;5072911;28;20223;-78
2021/12/07 10:32:01;;;;;;;13.32;9.38;;;5.40;78.10;;;4.75;64.14;94343.69;5058044;28;20192;-77
2021/12/07 10:34:36;;;;;;;16.48;9.48;;;5.40;77.90;;;4.83;64.23;94338.41;5057902;28;20306;-78
2021/12/07 10:37:14;;;;;;;14.65;9.85;;;5.40;78.20;;;4.90;64.10;94341.16;5056401;28;20226;-78
2021/12/07 10:39:45;;;;;;;15.10;9.55;;;5.50;78.20;;;4.94;64.08;94335.47;5070642;28;20220;-76
2021/12/07 10:42:27;;;;;;;13.57;9.60;;;5.60;78.10;;;5.01;64.12;94339.97;5085987;28;20191;-78
2021/12/07 10:45:06;;;;;;;16.77;9.55;;;5.60;77.90;;;5.13;64.08;94339.38;5056976;28;22208;-78
2021/12/07 10:47:34;;;;;;;16.48;9.93;;;5.70;78.30;;;5.25;63.87;94341.59;5055250;28;20187;-78
2021/12/07 10:50:15;;;;;;;13.95;9.70;;;5.70;78.40;;;5.35;64.14;94334.38;5052898;28;20581;-77
2021/12/07 10:52:45;;;;;;;38.33;19.48;;;5.90;78.40;;;5.45;63.97;94340.13;5039208;28;20191;-78
2021/12/07 10:55:21;;;;;;;27.58;16.38;;;5.90;78.50;;;5.57;63.80;94339.75;5039962;28;20605;-77
2021/12/07 10:58:01;;;;;;;24.98;14.30;;;6.00;78.00;;;5.65;63.91;94336.25;5037558;28;20195;-78
2021/12/07 11:00:30;;;;;;;21.45;13.25;;;6.10;78.30;;;5.71;63.76;94331.19;5055838;28;20762;-78
2021/12/07 11:03:04;;;;;;;19.85;12.35;;;6.20;78.30;;;5.79;63.37;94337.28;5055696;28;20203;-78
2021/12/07 11:05:37;;;;;;;20.67;12.38;;;6.30;78.10;;;5.85;63.78;94339.19;5073155;28;20230;-78
2021/12/07 11:08:07;;;;;;;18.02;11.93;;;6.30;78.20;;;5.92;63.95;94340.09;5073059;28;20183;-78
2021/12/07 11:10:38;;;;;;;14.13;10.02;;;6.40;78.00;;;5.98;63.33;94338.56;5072130;28;20296;-78
2021/12/07 11:13:24;;;;;;;17.20;10.75;;;6.50;78.00;;;6.00;63.23;94334.84;5071687;28;21081;-77
2021/12/07 11:15:56;;;;;;;18.73;11.48;;;6.50;77.50;;;6.02;63.26;94335.47;5054487;28;20705;-79
2021/12/07 11:18:37;;;;;;;29.20;15.43;;;6.60;77.70;;;6.03;63.08;94342.28;5055859;28;20196;-78
2021/12/07 11:21:12;;;;;;;20.00;12.25;;;6.60;77.20;;;6.03;63.10;94337.09;5071475;28;20658;-79
2021/12/07 11:23:44;;;;;;;30.30;15.90;;;6.70;77.20;;;6.05;62.64;94335.13;5070649;28;20599;-78
2021/12/07 11:31:56;;;;;;;24.35;13.45;;;6.70;77.10;;;6.02;63.11;94329.47;5088921;28;20188;-79
2021/12/07 11:34:31;;;;;;;22.13;12.20;;;6.70;76.90;;;5.98;62.71;94333.38;5047971;28;20222;-77
2021/12/07 11:37:08;;;;;;;22.73;13.60;;;6.70;77.10;;;5.90;62.72;94326.44;5074859;28;20214;-78
2021/12/07 11:39:40;;;;;;;36.47;17.45;;;6.70;77.00;;;5.86;62.66;94323.41;5065754;28;20211;-78
2021/12/07 11:42:11;;;;;;;46.20;21.38;;;6.70;76.80;;;5.83;62.57;94338.56;5050727;28;20184;-78
2021/12/07 11:45:09;;;;;;;41.78;19.70;;;6.60;76.70;;;5.74;62.46;94323.00;5094111;28;20208;-77
2021/12/07 11:47:48;;;;;;;25.75;13.77;;;6.70;76.40;;;5.67;62.32;94329.88;5048530;28;20741;-77
2021/12/07 11:50:31;;;;;;;58.50;21.67;;;6.60;76.50;;;5.58;62.03;94323.16;5075809;28;20269;-78
2021/12/07 11:53:06;;;;;;;27.58;15.10;;;6.50;76.30;;;5.51;62.40;94335.25;5078170;28;20229;-78
2021/12/07 11:55:37;;;;;;;19.55;12.00;;;6.50;76.40;;;5.43;62.13;94331.72;5069989;28;20227;-78
2021/12/07 11:58:07;;;;;;;16.85;10.45;;;6.40;76.40;;;5.38;62.34;94330.63;5051763;28;20249;-78
2021/12/07 12:00:48;;;;;;;18.10;11.20;;;6.40;76.40;;;5.33;62.51;94333.72;5046915;28;20486;-78
2021/12/07 12:03:19;;;;;;;14.70;10.48;;;6.30;76.40;;;5.28;62.34;94331.69;5044634;28;20214;-78
2021/12/07 12:05:50;;;;;;;13.95;9.65;;;6.20;76.40;;;5.25;62.43;94331.22;5038430;28;20234;-78
2021/12/07 12:08:20;;;;;;;14.93;9.70;;;6.20;76.40;;;5.20;62.36;94336.09;5055151;28;20226;-78
2021/12/07 12:10:56;;;;;;;11.80;9.18;;;6.20;76.50;;;5.16;62.57;94334.84;5088133;28;20227;-78
2021/12/07 12:13:46;;;;;;;12.45;8.40;;;6.10;76.50;;;5.13;62.67;94331.59;5072939;28;20597;-78
2021/12/07 12:16:25;;;;;;;16.88;11.02;;;6.00;76.30;;;5.13;62.52;94341.19;5071078;28;20620;-77
2021/12/07 12:19:05;;;;;;;15.07;10.52;;;6.10;76.50;;;5.09;62.64;94340.72;5084916;28;20246;-79
2021/12/07 12:21:53;;;;;;;13.90;9.93;;;6.00;76.50;;;5.06;62.63;94335.06;5069490;28;20638;-78
2021/12/07 12:24:51;;;;;;;15.63;11.38;;;5.90;76.40;;;5.01;62.57;94340.75;5053853;28;20356;-79
2021/12/07 12:27:32;;;;;;;14.93;9.27;;;5.90;76.60;;;4.99;62.79;94336.72;5053861;28;20666;-78